Time;durP1;ratioP1;P1;durP2;ratioP2;P2;SDS_P1;SDS_P2;PMS_P1;PMS_P2;Temp;Humidity;BMP_temperature;BMP_pressure;BME280_temperature;BME280_humidity;BME280_pressure;Samples;Min_cycle;Max_cycle;Signal;HPM_P1;HPM_P2
2023/10/19 00:00:44;;;;;;;;;;;;;;;13.39;76.33;100642.66;5989985;23;20023;-81
2023/10/19 00:03:14;;;;;;;62.27;32.47;;;;;;;13.66;75.76;100678.22;6009513;23;20145;-78
2023/10/19 00:05:41;;;;;;;64.55;33.38;;;;;;;13.72;75.97;100652.78;5994577;23;20049;-80
2023/10/19 00:08:21;;;;;;;67.85;37.40;;;;;;;13.56;75.66;100608.97;6033314;23;20542;-78
2023/10/19 00:11:41;;;;;;;55.58;30.83;;;;;;;13.67;76.82;100584.72;6013333;23;20460;-81
2023/10/19 00:13:50;;;;;;;73.13;35.40;;;;;;;14.30;76.68;100607.56;6013688;23;20027;-79
2023/10/19 00:16:28;;;;;;;67.22;35.40;;;;;;;14.29;75.12;100608.56;5995845;23;20061;-81
2023/10/19 00:19:01;;;;;;;64.13;36.47;;;;;;;14.29;74.44;100616.56;6013800;23;20074;-80
2023/10/19 00:21:27;;;;;;;61.88;35.33;;;;;;;14.14;74.40;100618.16;6055098;23;20053;-79
2023/10/19 00:24:04;;;;;;;71.75;35.58;;;;;;;14.04;74.37;100628.13;5990702;23;20021;-81
2023/10/19 00:26:31;;;;;;;69.70;34.58;;;;;;;13.97;74.85;100632.44;6021500;23;20034;-79
2023/10/19 00:29:00;;;;;;;65.15;34.85;;;;;;;13.67;75.43;100589.22;5999485;23;20015;-80
2023/10/19 00:31:27;;;;;;;71.05;37.55;;;;;;;13.89;75.58;100622.53;5978389;23;20027;-78
2023/10/19 00:33:56;;;;;;;74.05;38.42;;;;;;;13.80;75.49;100602.97;5986060;23;20101;-79
2023/10/19 00:36:30;;;;;;;62.83;36.03;;;;;;;13.70;75.59;100578.22;5979782;23;20208;-80
2023/10/19 00:39:00;;;;;;;65.75;35.15;;;;;;;13.73;75.79;100604.59;5980721;23;20098;-80
2023/10/19 00:41:30;;;;;;;65.13;34.15;;;;;;;13.72;76.27;100610.94;6002102;23;20086;-78
2023/10/19 00:44:37;;;;;;;51.25;27.95;;;;;;;13.62;76.49;100570.19;6006550;23;20405;-81
2023/10/19 00:47:02;;;;;;;65.18;35.03;;;;;;;13.89;76.35;100595.84;5993930;23;20019;-79
2023/10/19 00:49:33;;;;;;;60.45;32.75;;;;;;;14.04;76.87;100574.75;5988455;23;20019;-81
2023/10/19 00:52:11;;;;;;;71.30;36.97;;;;;;;14.29;75.99;100581.84;6011514;23;20310;-78
2023/10/19 00:54:51;;;;;;;66.20;36.10;;;;;;;14.23;74.78;100571.00;6019020;23;20560;-78
2023/10/19 00:57:32;;;;;;;69.65;35.05;;;;;;;14.01;74.53;100533.19;6029151;23;20015;-79
2023/10/19 01:00:21;;;;;;;67.65;35.30;;;;;;;13.90;75.17;100533.47;5998264;23;20034;-80
2023/10/19 01:02:51;;;;;;;58.97;32.70;;;;;;;13.96;75.03;100551.53;6008799;23;20023;-78
2023/10/19 01:05:21;;;;;;;60.58;33.63;;;;;;;13.84;73.47;100547.47;5992416;23;20026;-79
2023/10/19 01:07:57;;;;;;;69.95;34.92;;;;;;;13.74;73.86;100576.94;5958642;23;20031;-79
2023/10/19 01:10:24;;;;;;;62.42;34.45;;;;;;;13.22;74.44;100516.38;5975088;23;20024;-79
2023/10/19 01:12:51;;;;;;;52.47;25.50;;;;;;;13.55;75.20;100553.13;5998352;23;20348;-79
2023/10/19 01:17:57;;;;;;;47.92;26.63;;;;;;;13.68;75.19;100526.84;5959341;23;20197;-81
2023/10/19 01:23:06;;;;;;;66.43;32.28;;;;;;;13.80;75.10;100546.94;5974518;23;20027;-81
2023/10/19 01:25:38;;;;;;;62.85;32.35;;;;;;;13.70;75.05;100530.22;5975916;23;20095;-79
2023/10/19 01:28:09;;;;;;;;;;;;;;;13.72;74.95;100532.72;5990619;23;20024;-78
2023/10/19 01:30:38;;;;;;;65.00;34.38;;;;;;;13.11;75.28;100450.00;5965117;23;19929;-79
2023/10/19 01:33:15;;;;;;;57.13;29.27;;;;;;;13.60;75.49;100516.97;5976184;23;20079;-77
2023/10/19 01:38:33;;;;;;;74.65;35.88;;;;;;;13.49;75.66;100527.91;5957542;23;20024;-81
2023/10/19 01:41:02;;;;;;;56.15;33.58;;;;;;;13.48;76.47;100512.91;5966904;23;20091;-80
2023/10/19 01:43:31;;;;;;;66.05;33.50;;;;;;;13.53;76.28;100507.13;5981709;23;20305;-79
2023/10/19 01:46:11;;;;;;;61.78;34.05;;;;;;;13.28;76.15;100466.97;5961083;23;20020;-80
2023/10/19 01:48:43;;;;;;;64.70;33.90;;;;;;;13.45;75.71;100503.41;5952816;23;20263;-78
2023/10/19 01:51:11;;;;;;;45.70;24.48;;;;;;;13.18;76.37;100474.19;5961037;23;20020;-79
2023/10/19 01:53:46;;;;;;;63.25;33.42;;;;;;;13.25;77.63;100472.56;5968278;23;20408;-80
2023/10/19 01:56:16;;;;;;;68.35;34.10;;;;;;;13.32;77.03;100478.97;5966138;23;20027;-80
2023/10/19 01:58:46;;;;;;;75.70;36.25;;;;;;;13.29;76.61;100473.97;5946781;23;20028;-81
2023/10/19 02:04:03;;;;;;;51.85;27.67;;;;;;;12.93;76.57;100418.06;6000790;23;20020;-80
2023/10/19 02:06:38;;;;;;;75.97;36.35;;;;;;;13.46;76.29;100485.56;6017705;23;20518;-80
2023/10/19 02:09:32;;;;;;;72.00;35.90;;;;;;;13.48;76.74;100458.75;5964229;23;20024;-79
2023/10/19 02:12:01;;;;;;;71.93;34.08;;;;;;;13.59;76.79;100469.13;5969222;23;20024;-81
2023/10/19 02:14:33;;;;;;;74.32;35.13;;;;;;;13.44;76.02;100456.38;5956211;23;20028;-81
2023/10/19 02:17:06;;;;;;;69.80;34.85;;;;;;;13.41;75.97;100451.38;5976923;23;20035;-80
2023/10/19 02:19:33;;;;;;;69.63;34.65;;;;;;;13.32;76.68;100449.66;5952929;23;20062;-80
2023/10/19 02:22:12;;;;;;;62.92;31.58;;;;;;;13.30;76.11;100457.00;5945223;23;20031;-80
2023/10/19 02:24:50;;;;;;;74.47;34.40;;;;;;;13.31;77.15;100485.31;5898234;23;20020;-81
2023/10/19 02:27:25;;;;;;;63.47;32.53;;;;;;;13.38;77.62;100470.34;5926918;23;20055;-81
2023/10/19 02:30:06;;;;;;;67.68;32.92;;;;;;;13.44;77.54;100452.88;5935384;23;20024;-81
2023/10/19 02:32:53;;;;;;;64.80;32.72;;;;;;;13.27;77.30;100385.31;5902783;23;20326;-80
2023/10/19 02:35:20;;;;;;;39.15;20.40;;;;;;;14.02;78.85;100389.91;5955325;23;20023;-82
2023/10/19 02:37:46;;;;;;;47.72;26.63;;;;;;;14.89;77.20;100375.06;5959201;23;20416;-79
2023/10/19 02:40:19;;;;;;;62.75;33.17;;;;;;;15.27;73.97;100374.50;5991729;23;20341;-81
2023/10/19 02:42:53;;;;;;;61.65;31.23;;;;;;;14.94;72.39;100395.94;5899837;23;20119;-81
2023/10/19 02:45:30;;;;;;;72.63;32.90;;;;;;;14.63;72.47;100439.38;5926235;23;20020;-81
2023/10/19 02:48:01;;;;;;;78.28;34.13;;;;;;;14.47;73.99;100436.69;5915781;23;20326;-78
2023/10/19 02:50:28;;;;;;;26.65;16.00;;;;;;;14.56;75.34;100395.66;5940242;23;20478;-80
2023/10/19 02:53:00;;;;;;;71.05;32.42;;;;;;;14.89;74.97;100403.66;5983579;23;20336;-82
2023/10/19 02:55:27;;;;;;;61.25;31.83;;;;;;;14.61;74.10;100416.50;5969246;23;20032;-79
2023/10/19 02:57:55;;;;;;;73.75;33.08;;;;;;;14.12;74.46;100361.22;5977952;23;20095;-78
2023/10/19 03:00:32;;;;;;;69.45;34.22;;;;;;;14.44;75.49;100388.94;5962440;23;20448;-81
2023/10/19 03:03:00;;;;;;;57.55;29.80;;;;;;;14.28;75.79;100406.63;5938642;23;20055;-80
2023/10/19 03:05:34;;;;;;;53.05;29.52;;;;;;;14.06;76.17;100376.06;5936611;23;20551;-81
2023/10/19 03:08:05;;;;;;;59.10;32.47;;;;;;;14.36;77.21;100383.59;5981706;23;20852;-80
2023/10/19 03:10:41;;;;;;;53.70;30.10;;;;;;;14.30;76.24;100399.28;5969955;23;20310;-80
2023/10/19 03:13:22;;;;;;;53.40;26.88;;;;;;;14.13;76.63;100364.72;5985463;23;20034;-81
2023/10/19 03:15:53;;;;;;;59.47;31.55;;;;;;;14.26;76.54;100381.94;5971574;23;20163;-79
2023/10/19 03:18:19;;;;;;;57.30;30.83;;;;;;;14.26;76.57;100387.25;5995541;23;20725;-81
2023/10/19 03:20:46;;;;;;;60.40;31.00;;;;;;;14.18;76.07;100373.09;5995069;23;20019;-79
2023/10/19 03:23:14;;;;;;;48.70;27.33;;;;;;;14.13;76.03;100376.25;6011349;23;20023;-78
2023/10/19 03:28:40;;;;;;;53.75;29.15;;;;;;;13.79;76.57;100318.50;5974337;23;20334;-78
2023/10/19 03:31:08;;;;;;;49.15;27.92;;;;;;;14.00;76.43;100362.53;6005021;23;20023;-77
2023/10/19 03:33:40;;;;;;;51.20;27.13;;;;;;;14.08;76.73;100362.56;5979904;23;20031;-81
2023/10/19 03:36:12;;;;;;;56.25;29.63;;;;;;;14.08;76.66;100336.69;5994029;23;20023;-79
2023/10/19 03:38:40;;;;;;;53.25;30.73;;;;;;;14.22;76.38;100358.38;5974671;23;20031;-78
2023/10/19 03:41:09;;;;;;;47.80;27.25;;;;;;;13.98;75.88;100340.50;5986979;23;20079;-79
2023/10/19 03:43:40;;;;;;;46.33;25.50;;;;;;;13.60;75.96;100294.78;5973181;23;20023;-78
2023/10/19 03:46:24;;;;;;;53.13;28.27;;;;;;;13.81;76.01;100335.16;5991491;23;20023;-77
2023/10/19 03:48:51;;;;;;;48.67;27.75;;;;;;;14.06;76.61;100349.38;5991276;23;20545;-78
2023/10/19 03:51:24;;;;;;;41.63;24.58;;;;;;;14.01;76.94;100335.69;5994099;23;20538;-79
2023/10/19 03:53:58;;;;;;;51.78;26.63;;;;;;;14.04;76.76;100350.53;5984101;23;20119;-80
2023/10/19 03:56:25;;;;;;;41.70;23.75;;;;;;;14.03;76.66;100356.84;5961526;23;20437;-81
2023/10/19 03:58:58;;;;;;;49.53;24.77;;;;;;;13.89;76.45;100356.53;5945904;23;20023;-81
2023/10/19 04:01:36;;;;;;;44.97;24.70;;;;;;;13.94;76.38;100376.56;5968597;23;20015;-79
2023/10/19 04:04:04;;;;;;;44.78;24.65;;;;;;;13.71;76.85;100326.47;5947758;23;20020;-79
2023/10/19 04:06:31;;;;;;;42.65;21.95;;;;;;;13.67;77.22;100282.47;5965354;23;20030;-77
2023/10/19 04:08:59;;;;;;;47.20;26.15;;;;;;;13.99;77.72;100304.84;5947576;23;20352;-79
2023/10/19 04:11:32;;;;;;;45.17;22.45;;;;;;;13.87;76.57;100272.31;5970821;23;20020;-78
2023/10/19 04:14:03;;;;;;;44.03;23.55;;;;;;;14.11;76.22;100335.53;5974023;23;20030;-80
2023/10/19 04:16:44;;;;;;;47.00;23.40;;;;;;;13.99;75.95;100342.19;5963766;23;20201;-83
2023/10/19 04:19:14;;;;;;;42.20;20.58;;;;;;;13.82;76.20;100334.16;5948944;23;20036;-79
2023/10/19 04:21:46;;;;;;;39.70;21.55;;;;;;;13.85;76.46;100341.81;5965462;23;20035;-82
2023/10/19 04:24:14;;;;;;;;;;;;;;;13.81;76.90;100331.66;5969078;23;20031;-80
2023/10/19 04:26:42;;;;;;;23.10;12.70;;;;;;;13.42;77.33;100250.41;5934052;23;20342;-80
2023/10/19 04:29:13;;;;;;;36.20;20.10;;;;;;;14.04;77.47;100310.50;5940589;23;20628;-79
2023/10/19 04:31:57;;;;;;;38.22;19.40;;;;;;;13.90;77.33;100299.47;5954516;23;20023;-79
2023/10/19 04:34:29;;;;;;;27.23;16.27;;;;;;;13.67;76.21;100269.13;5950858;23;20024;-81
2023/10/19 04:36:57;;;;;;;28.92;17.10;;;;;;;13.87;76.71;100318.50;5974428;23;20459;-81
2023/10/19 04:39:30;;;;;;;20.13;13.13;;;;;;;13.86;77.38;100302.66;5986864;23;20055;-82
2023/10/19 04:41:57;;;;;;;26.77;14.95;;;;;;;13.96;77.02;100299.84;5954314;23;20103;-79
2023/10/19 04:44:23;;;;;;;33.08;16.98;;;;;;;14.06;77.32;100300.50;5990882;23;20103;-78
2023/10/19 04:46:50;;;;;;;36.60;19.52;;;;;;;13.86;76.68;100295.50;5962026;23;20059;-79
2023/10/19 04:49:18;;;;;;;34.05;18.90;;;;;;;13.81;76.81;100297.81;5967769;23;20464;-78
2023/10/19 04:51:49;;;;;;;29.23;17.42;;;;;;;13.90;77.61;100304.81;5981013;23;20019;-81
2023/10/19 04:54:17;;;;;;;32.78;18.25;;;;;;;13.90;77.89;100299.47;5953424;23;20307;-81
2023/10/19 04:56:44;;;;;;;30.45;17.48;;;;;;;13.99;77.35;100292.31;5986912;23;20028;-80
2023/10/19 04:59:11;;;;;;;23.38;12.52;;;;;;;14.02;77.55;100283.16;5959672;23;20023;-79
2023/10/19 05:01:40;;;;;;;29.65;17.17;;;;;;;14.10;77.36;100291.13;5947592;23;20400;-78
2023/10/19 05:04:07;;;;;;;37.50;21.60;;;;;;;13.94;76.63;100267.97;5924847;23;20095;-80
2023/10/19 05:06:34;;;;;;;36.28;18.90;;;;;;;13.89;76.92;100257.78;5942646;23;20023;-78
2023/10/19 05:09:03;;;;;;;25.48;15.05;;;;;;;13.94;77.10;100264.47;5943946;23;20028;-80
2023/10/19 05:11:29;;;;;;;37.17;18.63;;;;;;;14.08;77.12;100287.84;5962035;23;20363;-80
2023/10/19 05:13:57;;;;;;;40.17;19.70;;;;;;;14.00;76.67;100290.47;5988521;23;20047;-81
2023/10/19 05:16:27;;;;;;;37.38;20.10;;;;;;;13.67;77.09;100247.78;5975009;23;20468;-80
2023/10/19 05:18:54;;;;;;;39.75;21.02;;;;;;;13.83;77.16;100274.44;5964729;23;20438;-79
2023/10/19 05:21:21;;;;;;;40.00;20.45;;;;;;;13.83;77.31;100285.13;5983031;23;20293;-79
2023/10/19 05:23:49;;;;;;;23.88;12.98;;;;;;;13.55;76.85;100254.44;5991694;23;20023;-80
2023/10/19 05:26:19;;;;;;;38.22;20.05;;;;;;;13.56;77.25;100246.25;5996036;23;20024;-81
2023/10/19 05:28:47;;;;;;;37.80;19.58;;;;;;;13.77;77.90;100269.78;5966155;23;20321;-80
2023/10/19 05:31:15;;;;;;;33.10;18.45;;;;;;;13.50;78.03;100224.75;5982466;23;20023;-79
2023/10/19 05:33:42;;;;;;;34.28;16.80;;;;;;;13.77;77.31;100275.13;5974721;23;20174;-77
2023/10/19 05:36:09;;;;;;;38.50;19.38;;;;;;;13.69;77.69;100261.78;5986647;23;20393;-81
2023/10/19 05:38:36;;;;;;;36.42;20.05;;;;;;;13.66;77.26;100243.44;5976933;23;20467;-77
2023/10/19 05:41:03;;;;;;;41.20;20.77;;;;;;;13.71;77.52;100259.75;6005512;23;20035;-80
2023/10/19 05:43:30;;;;;;;40.22;21.05;;;;;;;13.67;77.40;100263.78;5953275;23;20680;-78
2023/10/19 05:46:00;;;;;;;37.08;19.52;;;;;;;13.60;77.31;100268.09;5977417;23;20118;-81
2023/10/19 05:48:28;;;;;;;45.03;21.45;;;;;;;13.46;78.17;100273.06;5965170;23;20020;-79
2023/10/19 05:50:56;;;;;;;29.42;16.60;;;;;;;13.40;78.40;100246.25;5954274;23;20038;-78
2023/10/19 05:53:23;;;;;;;38.17;21.08;;;;;;;13.38;78.56;100226.91;6007003;23;20032;-78
2023/10/19 05:55:50;;;;;;;36.70;20.42;;;;;;;13.66;78.55;100256.75;5938243;23;20019;-78
2023/10/19 05:58:17;;;;;;;32.97;18.95;;;;;;;13.71;78.74;100256.28;5991925;23;20134;-77
2023/10/19 06:00:44;;;;;;;29.95;16.48;;;;;;;13.62;78.53;100234.09;5967387;23;20028;-79
2023/10/19 06:03:10;;;;;;;35.67;19.77;;;;;;;13.75;78.40;100247.78;5996627;23;20103;-78
2023/10/19 06:05:38;;;;;;;32.25;16.45;;;;;;;13.82;78.30;100256.78;6005122;23;20238;-80
2023/10/19 06:08:05;;;;;;;33.72;18.00;;;;;;;13.55;77.51;100222.44;6007858;23;20248;-78
2023/10/19 06:10:32;;;;;;;31.73;18.60;;;;;;;13.78;77.55;100258.09;6012799;23;20218;-78
2023/10/19 06:13:03;;;;;;;28.95;16.88;;;;;;;13.74;77.72;100248.78;5997200;23;20099;-79
2023/10/19 06:15:36;;;;;;;30.75;18.67;;;;;;;13.68;77.94;100225.44;5985850;23;20027;-80
2023/10/19 06:18:03;;;;;;;28.67;16.97;;;;;;;13.90;78.17;100250.63;6017489;23;20074;-79
2023/10/19 06:20:30;;;;;;;29.48;17.35;;;;;;;13.82;77.61;100267.47;6009393;23;20023;-77
2023/10/19 06:23:04;;;;;;;30.48;17.67;;;;;;;13.81;77.88;100271.13;5999645;23;20036;-80
2023/10/19 06:25:32;;;;;;;28.55;17.60;;;;;;;13.85;78.06;100268.97;5975054;23;20050;-78
2023/10/19 06:27:59;;;;;;;34.08;19.73;;;;;;;13.72;77.92;100255.28;5977175;23;20523;-78
2023/10/19 06:30:26;;;;;;;33.97;20.38;;;;;;;13.63;77.88;100236.59;5994786;23;20648;-78
2023/10/19 06:32:57;;;;;;;33.63;19.92;;;;;;;13.78;78.38;100273.28;5998661;23;20027;-78
2023/10/19 06:35:24;;;;;;;35.13;19.65;;;;;;;13.96;78.99;100267.81;6026657;23;20030;-79
2023/10/19 06:37:53;;;;;;;35.63;19.52;;;;;;;13.90;78.03;100242.59;5989598;23;20023;-78
2023/10/19 06:40:26;;;;;;;35.83;20.58;;;;;;;14.21;77.69;100269.47;5942678;23;20027;-79
2023/10/19 06:42:58;;;;;;;37.13;21.13;;;;;;;14.00;77.32;100264.63;5956648;23;20027;-77
2023/10/19 06:45:25;;;;;;;38.67;20.90;;;;;;;14.12;77.91;100273.13;5990153;23;20543;-77
2023/10/19 06:47:55;;;;;;;32.60;18.95;;;;;;;14.09;77.11;100265.47;6024337;23;20055;-80
2023/10/19 06:50:24;;;;;;;30.52;18.05;;;;;;;14.07;76.80;100270.13;5999938;23;20027;-79
2023/10/19 06:52:54;;;;;;;37.40;21.48;;;;;;;13.97;77.20;100261.47;6009207;23;20027;-77
2023/10/19 06:55:22;;;;;;;22.08;14.07;;;;;;;13.60;77.70;100209.44;6005629;23;20038;-78
2023/10/19 06:57:53;;;;;;;34.20;19.83;;;;;;;13.89;78.16;100244.44;5980834;23;20266;-77
2023/10/19 07:00:22;;;;;;;35.05;19.48;;;;;;;13.92;77.80;100245.13;5979631;23;20624;-77
2023/10/19 07:02:55;;;;;;;31.85;19.92;;;;;;;14.01;77.92;100238.78;6008713;23;20032;-79
2023/10/19 07:05:31;;;;;;;31.13;18.50;;;;;;;13.65;77.69;100188.44;6008298;23;20034;-77
2023/10/19 07:08:06;;;;;;;31.75;17.77;;;;;;;13.84;76.96;100244.13;5985625;23;20143;-79
2023/10/19 07:10:36;;;;;;;29.00;16.88;;;;;;;13.74;77.43;100254.13;5964140;23;20020;-77
2023/10/19 07:13:03;;;;;;;24.95;15.95;;;;;;;13.86;77.94;100258.13;5986444;23;20024;-78
2023/10/19 07:15:31;;;;;;;29.73;17.67;;;;;;;13.96;78.26;100251.81;5960922;23;20031;-79
2023/10/19 07:17:58;;;;;;;29.10;16.90;;;;;;;14.21;78.17;100268.63;5986268;23;20141;-78
2023/10/19 07:20:27;;;;;;;14.40;9.25;;;;;;;14.25;77.04;100262.78;5939505;23;20527;-76
2023/10/19 07:25:54;;;;;;;27.27;16.88;;;;;;;14.36;77.65;100240.22;5969177;23;20241;-77
2023/10/19 07:28:28;;;;;;;22.83;12.57;;;;;;;14.42;77.70;100233.41;5963917;23;20067;-79
2023/10/19 07:30:56;;;;;;;25.05;15.70;;;;;;;14.39;76.69;100237.22;5989683;23;20645;-80
2023/10/19 07:33:24;;;;;;;25.35;15.30;;;;;;;14.38;76.05;100240.06;5944324;23;20464;-78
2023/10/19 07:35:55;;;;;;;26.65;14.63;;;;;;;14.37;75.69;100230.38;5974522;23;20036;-79
2023/10/19 07:38:22;;;;;;;24.53;16.47;;;;;;;14.23;75.90;100227.41;6002682;23;20470;-77
2023/10/19 07:41:09;;;;;;;26.58;14.88;;;;;;;14.26;75.67;100237.75;5967671;23;20020;-79
2023/10/19 07:43:36;;;;;;;27.15;16.42;;;;;;;14.27;75.65;100212.72;5992294;23;20026;-77
2023/10/19 07:46:03;;;;;;;31.02;16.40;;;;;;;14.17;75.90;100211.22;5984937;23;20478;-77
2023/10/19 07:48:31;;;;;;;24.42;15.05;;;;;;;13.97;76.93;100205.41;5987839;23;20041;-78
2023/10/19 07:50:57;;;;;;;18.52;11.13;;;;;;;14.11;76.80;100234.09;5996919;23;20385;-77
2023/10/19 07:53:25;;;;;;;27.48;16.63;;;;;;;14.12;76.98;100209.06;5986373;23;20460;-77
2023/10/19 07:55:52;;;;;;;31.05;17.25;;;;;;;14.32;76.77;100244.22;5952894;23;20019;-78
2023/10/19 07:58:25;;;;;;;27.17;16.17;;;;;;;14.42;76.55;100244.09;5949584;23;20111;-79
2023/10/19 08:00:58;;;;;;;29.60;17.80;;;;;;;14.01;75.43;100191.56;5989308;23;20400;-78
2023/10/19 08:03:25;;;;;;;28.30;16.27;;;;;;;14.32;76.26;100229.06;5974472;23;20062;-77
2023/10/19 08:05:52;;;;;;;23.23;13.45;;;;;;;14.49;76.94;100221.84;5989524;23;20020;-77
2023/10/19 08:08:19;;;;;;;33.67;18.25;;;;;;;14.39;76.87;100202.50;5956658;23;20028;-77
2023/10/19 08:10:47;;;;;;;38.33;18.60;;;;;;;14.38;77.17;100197.34;5932476;23;20518;-77
2023/10/19 08:13:14;;;;;;;31.67;18.50;;;;;;;14.48;77.12;100208.66;5954395;23;20765;-77
2023/10/19 08:15:47;;;;;;;30.45;17.23;;;;;;;14.35;76.36;100203.88;5948540;23;20293;-79
2023/10/19 08:18:18;;;;;;;28.40;15.88;;;;;;;14.46;76.15;100200.81;5964486;23;20468;-79
2023/10/19 08:20:45;;;;;;;36.35;18.75;;;;;;;14.21;76.30;100154.66;5970888;23;20028;-80
2023/10/19 08:23:16;;;;;;;36.85;19.60;;;;;;;14.41;76.73;100189.00;5997354;23;20020;-78
2023/10/19 08:25:47;;;;;;;29.33;17.80;;;;;;;14.47;77.12;100188.31;5979743;23;20098;-80
2023/10/19 08:28:23;;;;;;;34.70;19.88;;;;;;;14.34;76.16;100183.50;5985188;23;20027;-80
2023/10/19 08:30:56;;;;;;;31.55;20.40;;;;;;;14.42;75.83;100202.19;5934746;23;20401;-79
2023/10/19 08:33:26;;;;;;;36.05;20.02;;;;;;;14.42;75.75;100193.34;5985763;23;20460;-80
2023/10/19 08:35:59;;;;;;;13.75;10.40;;;;;;;14.40;76.37;100200.69;5955076;23;20024;-79
2023/10/19 08:38:28;;;;;;;39.67;20.25;;;;;;;14.51;76.91;100192.28;5981920;23;20024;-80
2023/10/19 08:40:55;;;;;;;38.13;20.45;;;;;;;14.49;77.41;100178.25;5999384;23;20321;-81
2023/10/19 08:43:24;;;;;;;39.25;22.02;;;;;;;14.66;77.08;100195.97;5979012;23;20415;-79
2023/10/19 08:45:51;;;;;;;32.53;19.40;;;;;;;14.68;76.99;100177.88;5961086;23;20035;-79
2023/10/19 08:48:21;;;;;;;28.35;17.55;;;;;;;14.62;75.69;100178.59;5967219;23;20024;-80
2023/10/19 08:50:49;;;;;;;28.95;17.05;;;;;;;14.20;75.94;100107.63;5932926;23;20030;-79
2023/10/19 08:53:19;;;;;;;36.15;20.77;;;;;;;14.42;75.29;100143.44;5930377;23;20052;-79
2023/10/19 08:55:50;;;;;;;18.33;10.45;;;;;;;14.64;76.14;100189.13;5973023;23;20031;-77
2023/10/19 08:58:24;;;;;;;34.10;20.40;;;;;;;14.62;76.75;100159.91;5972111;23;20039;-78
2023/10/19 09:00:54;;;;;;;37.85;22.10;;;;;;;14.64;76.29;100155.22;5987683;23;20355;-77
2023/10/19 09:03:25;;;;;;;34.67;21.13;;;;;;;14.93;76.39;100177.81;5968794;23;20019;-78
2023/10/19 09:05:54;;;;;;;33.47;18.52;;;;;;;14.95;74.77;100173.09;5957693;23;20059;-80
2023/10/19 09:08:22;;;;;;;20.83;14.07;;;;;;;14.65;75.33;100115.97;5969377;23;20330;-78
2023/10/19 09:10:54;;;;;;;34.08;19.52;;;;;;;14.96;75.15;100185.47;5988284;23;20027;-78
2023/10/19 09:13:22;;;;;;;40.92;23.23;;;;;;;14.83;75.34;100163.81;5960744;23;20739;-81
2023/10/19 09:15:55;;;;;;;48.67;28.80;;;;;;;14.81;75.15;100189.88;5967065;23;20027;-80
2023/10/19 09:18:34;;;;;;;51.35;28.65;;;;;;;14.79;75.37;100194.56;5919429;23;20031;-81
2023/10/19 09:21:21;;;;;;;42.60;23.98;;;;;;;14.85;75.57;100172.47;5921955;23;20447;-79
2023/10/19 09:23:52;;;;;;;36.70;21.90;;;;;;;14.84;75.57;100165.47;5948769;23;20027;-78
2023/10/19 09:26:19;;;;;;;36.65;21.83;;;;;;;14.89;75.57;100182.66;5943801;23;20307;-81
2023/10/19 09:28:57;;;;;;;37.42;21.83;;;;;;;14.72;75.28;100149.81;5962867;23;20283;-80
2023/10/19 09:31:32;;;;;;;34.80;20.83;;;;;;;14.85;75.27;100161.78;5936962;23;20046;-80
2023/10/19 09:34:03;;;;;;;35.45;20.77;;;;;;;14.79;75.22;100170.53;5913752;23;20527;-77
2023/10/19 09:36:31;;;;;;;35.17;20.33;;;;;;;14.89;75.79;100168.47;5992042;23;20522;-79
2023/10/19 09:38:58;;;;;;;42.00;23.58;;;;;;;14.90;75.66;100157.59;5940230;23;20169;-77
2023/10/19 09:41:28;;;;;;;40.38;22.45;;;;;;;15.02;75.67;100144.66;5985904;23;20095;-79
2023/10/19 09:44:04;;;;;;;32.40;19.33;;;;;;;14.60;75.70;100047.03;5947320;23;20027;-79
2023/10/19 09:46:35;;;;;;;40.13;24.80;;;;;;;15.03;75.28;100143.66;5963807;23;20028;-78
2023/10/19 09:49:02;;;;;;;36.80;20.92;;;;;;;14.91;74.83;100129.03;5985358;23;20026;-78
2023/10/19 09:51:32;;;;;;;48.15;27.45;;;;;;;14.87;75.19;100133.88;5982262;23;20344;-79
2023/10/19 09:54:05;;;;;;;47.33;26.90;;;;;;;14.79;75.27;100131.25;5948548;23;20472;-78
2023/10/19 09:56:36;;;;;;;46.38;26.38;;;;;;;14.75;75.91;100132.63;5983614;23;20019;-79
2023/10/19 09:59:23;;;;;;;41.75;23.10;;;;;;;14.77;76.09;100140.47;5948941;23;20032;-78
2023/10/19 10:02:17;;;;;;;41.53;19.50;;;;;;;14.79;75.46;100141.13;5960031;23;20028;-78
2023/10/19 10:04:45;;;;;;;46.30;22.30;;;;;;;14.71;75.68;100137.50;5957977;23;20476;-77
2023/10/19 10:07:13;;;;;;;41.03;21.40;;;;;;;14.78;75.69;100118.91;5987825;23;20393;-79
2023/10/19 10:09:49;;;;;;;45.13;24.90;;;;;;;13.86;75.62;99964.63;5992269;23;20447;-79
2023/10/19 10:12:24;;;;;;;43.80;24.77;;;;;;;14.30;76.33;100054.84;6026040;23;20074;-78
2023/10/19 10:15:25;;;;;;;46.08;23.90;;;;;;;14.73;76.03;100108.75;5981531;23;20788;-78
2023/10/19 10:17:54;;;;;;;46.60;25.55;;;;;;;14.85;76.20;100092.31;6020124;23;20045;-79
2023/10/19 10:20:21;;;;;;;35.20;20.38;;;;;;;14.85;75.86;100078.94;6013725;23;20338;-78
2023/10/19 10:23:21;;;;;;;45.13;23.23;;;;;;;14.60;75.53;100023.00;5969595;23;20092;-79
2023/10/19 10:25:49;;;;;;;44.03;24.38;;;;;;;14.70;75.85;100030.78;5914430;23;20072;-79
2023/10/19 10:28:17;;;;;;;41.13;23.65;;;;;;;14.95;75.32;100079.53;5894442;23;20040;-78
2023/10/19 10:31:18;;;;;;;43.15;23.88;;;;;;;14.98;75.59;100081.88;5947978;23;20028;-78
2023/10/19 10:33:54;;;;;;;36.40;21.77;;;;;;;14.91;75.13;100078.25;5955657;23;20314;-79
2023/10/19 10:36:21;;;;;;;37.97;19.50;;;;;;;14.81;75.56;100075.81;5967004;23;20024;-78
2023/10/19 10:38:50;;;;;;;27.40;15.75;;;;;;;15.16;75.87;100073.56;5972324;23;20024;-78
2023/10/19 10:41:28;;;;;;;37.13;21.30;;;;;;;15.25;74.99;100066.31;5979963;23;20023;-80
2023/10/19 10:43:57;;;;;;;39.60;21.73;;;;;;;15.25;74.59;100077.84;5939778;23;20296;-78
2023/10/19 10:46:27;;;;;;;33.45;18.60;;;;;;;15.22;75.03;100067.50;5940002;23;20555;-78
2023/10/19 10:48:54;;;;;;;40.17;21.50;;;;;;;15.05;74.47;100034.72;5969652;23;20848;-78
2023/10/19 10:51:23;;;;;;;32.42;15.52;;;;;;;14.63;74.33;99952.38;5958740;23;20023;-80
2023/10/19 10:53:52;;;;;;;41.15;21.38;;;;;;;15.32;74.36;100061.91;6043734;23;20023;-79
2023/10/19 10:56:21;;;;;;;33.45;20.33;;;;;;;15.33;73.69;100052.84;6040991;23;20053;-79
2023/10/19 10:58:51;;;;;;;;;;;;;;;15.34;75.42;100059.84;6040506;23;20038;-79
2023/10/19 11:01:32;;;;;;;30.80;16.98;;;;;;;15.45;74.74;100046.06;6055336;23;19933;-80
2023/10/19 11:04:11;;;;;;;39.70;20.50;;;;;;;15.58;73.81;100046.28;6042432;23;20411;-78
2023/10/19 11:06:56;;;;;;;36.67;20.20;;;;;;;15.47;74.28;100044.03;6042368;23;20023;-77
2023/10/19 11:09:24;;;;;;;41.13;20.65;;;;;;;15.39;74.00;100020.06;6041311;23;20019;-78
2023/10/19 11:11:54;;;;;;;39.72;21.40;;;;;;;15.48;73.86;100040.34;6056390;23;20069;-78
2023/10/19 11:14:24;;;;;;;27.45;15.45;;;;;;;15.36;74.22;100018.56;6031237;23;20814;-79
2023/10/19 11:16:51;;;;;;;42.05;21.25;;;;;;;15.27;74.02;100005.47;6040864;23;20078;-78
2023/10/19 11:19:37;;;;;;;30.30;15.75;;;;;;;15.52;74.55;100036.28;6062016;23;20025;-79
2023/10/19 11:22:10;;;;;;;37.05;20.63;;;;;;;15.49;74.77;100025.97;6029084;23;20355;-78
2023/10/19 11:24:40;;;;;;;33.03;18.30;;;;;;;15.51;74.82;99999.88;6049986;23;20498;-78
2023/10/19 11:27:11;;;;;;;36.60;19.80;;;;;;;15.25;73.91;99951.34;6049734;23;20347;-78
2023/10/19 11:29:53;;;;;;;;;;;;;;;15.66;73.74;100012.44;6032612;23;20030;-78
2023/10/19 11:32:21;;;;;;;29.42;16.67;;;;;;;15.54;73.36;100001.34;6048939;23;19924;-79
2023/10/19 11:34:48;;;;;;;27.40;16.52;;;;;;;15.58;73.77;100013.31;6038882;23;20033;-78
2023/10/19 11:37:15;;;;;;;30.38;15.98;;;;;;;15.55;73.85;100019.03;6017998;23;20029;-77
2023/10/19 11:39:45;;;;;;;27.65;15.68;;;;;;;15.62;73.73;100013.81;6043082;23;20019;-79
2023/10/19 11:42:13;;;;;;;26.52;15.35;;;;;;;15.58;73.71;100003.47;6017880;23;20034;-77
2023/10/19 11:44:40;;;;;;;28.92;15.27;;;;;;;15.72;74.33;100019.75;6042077;23;20034;-78
2023/10/19 11:47:11;;;;;;;25.50;15.95;;;;;;;15.88;73.50;100011.53;6025364;23;20509;-79